Mengen-Hohentengen Airport EDTM

Flugplatz Daten

Name: Mengen-Hohentengen Airport

Ident: EDTM

Lat: 48,05389023

Long: 9,372777939

Platzhöhe: 1818 ft

IataCode:

City: Mengen

Metar

2022/06/15 13:58
RKSO 151358Z 28005KT 2SM -RA BR FEW002 BKN016 OVC022 19/19 A2969 RMK AO2A CIG 016V022 BKN V SCT ALTSTG DATA EDTMD SLPNO TSNO $

Taf

Gewünschte Webcam nicht vorhanden? Dann fügen Sie eine hinzu. Sie wird dann so schnell wie möglich freigeschaltet
Url: Title: